Time;durP1;ratioP1;P1;durP2;ratioP2;P2;SDS_P1;SDS_P2;PMS_P1;PMS_P2;Temp;Humidity;BMP_temperature;BMP_pressure;BME280_temperature;BME280_humidity;BME280_pressure;Samples;Min_cycle;Max_cycle;Signal;HPM_P1;HPM_P2
2021/09/29 00:00:55;;;;;;;5.05;2.33;;;;;;;16.45;100.00;97955.22;4992218;28;20030;-77
2021/09/29 00:03:21;;;;;;;4.85;3.15;;;;;;;16.36;100.00;97950.56;4991084;28;20092;-78
2021/09/29 00:05:46;;;;;;;1.42;1.30;;;;;;;16.37;100.00;97957.66;4992003;28;20468;-77
2021/09/29 00:08:12;;;;;;;3.70;1.77;;;;;;;16.37;100.00;97946.84;4982649;28;20042;-77
2021/09/29 00:10:39;;;;;;;4.30;2.42;;;;;;;16.36;100.00;97942.44;4987315;28;20084;-77
2021/09/29 00:13:05;;;;;;;2.38;1.92;;;;;;;16.32;100.00;97935.56;4994087;28;20117;-77
2021/09/29 00:15:30;;;;;;;5.85;2.60;;;;;;;16.40;100.00;97946.59;4995404;28;20113;-78
2021/09/29 00:17:56;;;;;;;3.50;2.28;;;;;;;16.38;100.00;97934.22;4994158;28;20478;-78
2021/09/29 00:20:22;;;;;;;3.08;2.08;;;;;;;16.46;100.00;97948.81;4994339;28;20061;-77
2021/09/29 00:22:47;;;;;;;2.15;1.95;;;;;;;16.47;100.00;97946.97;5010233;28;20473;-77
2021/09/29 00:25:14;;;;;;;1.88;1.42;;;;;;;16.43;100.00;97951.75;4985847;28;20038;-77
2021/09/29 00:27:40;;;;;;;39.53;24.92;;;;;;;16.40;100.00;97940.34;4993801;28;20026;-76
2021/09/29 00:30:08;;;;;;;47.00;27.33;;;;;;;16.37;100.00;97952.25;4977832;28;20033;-78
2021/09/29 00:32:38;;;;;;;48.90;29.95;;;;;;;16.36;100.00;97950.56;4980859;28;20038;-77
2021/09/29 00:35:04;;;;;;;53.53;29.90;;;;;;;16.27;100.00;97954.81;4977957;28;20026;-77
2021/09/29 00:37:30;;;;;;;53.55;32.45;;;;;;;16.25;100.00;97945.13;4977488;28;20140;-77
2021/09/29 00:39:56;;;;;;;50.72;30.15;;;;;;;16.25;100.00;97939.72;5010228;28;20505;-77
2021/09/29 00:42:21;;;;;;;50.38;30.83;;;;;;;16.19;100.00;97938.38;5006591;28;20057;-77
2021/09/29 00:44:47;;;;;;;46.83;30.20;;;;;;;16.32;100.00;97959.00;5014399;28;20119;-77
2021/09/29 00:47:13;;;;;;;46.83;30.50;;;;;;;16.19;100.00;97941.06;4997032;28;20056;-77
2021/09/29 00:49:38;;;;;;;53.17;31.25;;;;;;;16.25;100.00;97954.09;5013330;28;20509;-77
2021/09/29 00:52:04;;;;;;;49.45;30.83;;;;;;;16.16;100.00;97954.78;5009908;28;20446;-76
2021/09/29 00:54:31;;;;;;;46.15;29.45;;;;;;;16.25;100.00;97958.63;4993619;28;20030;-77
2021/09/29 00:56:57;;;;;;;53.53;31.08;;;;;;;16.25;100.00;97955.91;4993797;28;20026;-78
2021/09/29 00:59:23;;;;;;;46.08;30.23;;;;;;;16.35;100.00;97954.22;4977555;28;20014;-77
2021/09/29 01:01:50;;;;;;;46.30;29.35;;;;;;;16.28;100.00;97940.34;4977477;28;20038;-78
2021/09/29 01:04:17;;;;;;;47.17;29.42;;;;;;;16.26;100.00;97945.00;4993549;28;20480;-77
2021/09/29 01:06:51;;;;;;;46.35;28.95;;;;;;;16.24;100.00;97940.72;4994563;28;20061;-77
2021/09/29 01:09:24;;;;;;;50.33;28.80;;;;;;;16.40;100.00;97962.81;4993627;28;20049;-77
2021/09/29 01:11:55;;;;;;;;;;;;;;;16.41;100.00;97959.13;4977654;28;20034;-77
2021/09/29 01:14:34;;;;;;;51.00;29.25;;;;;;;16.38;100.00;97955.81;4993309;28;19910;-77
2021/09/29 01:17:01;;;;;;;43.38;27.88;;;;;;;16.32;100.00;97943.66;4976900;28;20064;-78
2021/09/29 01:19:43;;;;;;;45.92;28.13;;;;;;;16.39;100.00;97953.00;4976975;28;20037;-78
2021/09/29 01:22:17;;;;;;;46.08;28.85;;;;;;;16.41;100.00;97944.78;4976013;28;20073;-77
2021/09/29 01:24:56;;;;;;;53.92;29.85;;;;;;;16.37;100.00;97936.03;4984706;28;20041;-77
2021/09/29 01:27:23;;;;;;;45.17;29.00;;;;;;;16.37;100.00;97936.03;4993517;28;20022;-78
2021/09/29 01:29:50;;;;;;;51.80;29.85;;;;;;;16.37;100.00;97938.75;4960634;28;20022;-77
2021/09/29 01:32:17;;;;;;;48.67;31.25;;;;;;;16.32;100.00;97930.16;4988887;28;20417;-77
2021/09/29 01:34:43;;;;;;;53.25;31.35;;;;;;;16.34;100.00;97936.28;4997511;28;20030;-77
2021/09/29 01:37:10;;;;;;;49.80;30.13;;;;;;;16.41;100.00;97951.03;4992632;28;20066;-77
2021/09/29 01:39:37;;;;;;;51.65;30.52;;;;;;;16.30;100.00;97940.25;4994067;28;20033;-77
2021/09/29 01:42:04;;;;;;;48.83;30.83;;;;;;;16.30;100.00;97934.84;4993672;28;20054;-77
2021/09/29 01:44:31;;;;;;;50.85;31.23;;;;;;;16.33;100.00;97944.53;4992621;28;20033;-77
2021/09/29 01:46:58;;;;;;;51.03;30.23;;;;;;;16.29;100.00;97941.22;4992512;28;20034;-77
2021/09/29 01:49:41;;;;;;;48.28;30.98;;;;;;;16.30;100.00;97956.44;4977799;28;20038;-77
2021/09/29 01:52:08;;;;;;;52.17;30.25;;;;;;;16.19;100.00;97929.41;4989476;28;20486;-76
2021/09/29 01:54:38;;;;;;;57.22;31.35;;;;;;;16.26;100.00;97955.81;4989681;28;20445;-77
2021/09/29 01:57:03;;;;;;;49.60;30.05;;;;;;;16.21;100.00;97938.25;4976154;28;20032;-77
2021/09/29 01:59:29;;;;;;;49.47;30.40;;;;;;;16.27;100.00;97946.72;4972965;28;20038;-77
2021/09/29 02:01:54;;;;;;;49.35;30.17;;;;;;;16.25;100.00;97950.50;4973005;28;20089;-78
2021/09/29 02:04:21;;;;;;;61.85;30.67;;;;;;;16.13;100.00;97948.78;4972772;28;20035;-77
2021/09/29 02:06:55;;;;;;;53.03;30.98;;;;;;;16.17;100.00;97955.66;4989343;28;20521;-77
2021/09/29 02:09:24;;;;;;;46.15;29.92;;;;;;;16.15;100.00;97946.84;4992296;28;20038;-76
2021/09/29 02:11:50;;;;;;;54.10;29.63;;;;;;;16.05;100.00;97929.63;4976047;28;20093;-77
2021/09/29 02:14:20;;;;;;;49.88;29.95;;;;;;;16.16;100.00;97945.84;4987910;28;20062;-78
2021/09/29 02:16:47;;;;;;;50.10;28.70;;;;;;;16.13;100.00;97948.78;4988872;28;20046;-77
2021/09/29 02:19:13;;;;;;;47.53;29.90;;;;;;;16.10;100.00;97944.47;4989021;28;20459;-77
2021/09/29 02:21:39;;;;;;;45.70;28.55;;;;;;;16.24;100.00;97959.63;4975696;28;20117;-77
2021/09/29 02:24:05;;;;;;;43.97;26.58;;;;;;;16.15;100.00;97957.63;4991801;28;20026;-76
2021/09/29 02:26:31;;;;;;;42.80;27.55;;;;;;;16.10;100.00;97954.41;4975767;28;20118;-76
2021/09/29 02:28:56;;;;;;;47.15;26.75;;;;;;;16.16;100.00;97960.19;4993359;28;20450;-77
2021/09/29 02:31:22;;;;;;;38.08;24.85;;;;;;;16.10;100.00;97946.31;4993004;28;20030;-77
2021/09/29 02:33:48;;;;;;;49.50;26.83;;;;;;;16.13;100.00;97959.56;4991906;28;20022;-77
2021/09/29 02:36:13;;;;;;;47.25;29.27;;;;;;;16.12;100.00;97963.25;4991821;28;20049;-77
2021/09/29 02:38:41;;;;;;;53.03;27.92;;;;;;;16.08;100.00;97968.03;5008152;28;20085;-77
2021/09/29 02:41:07;;;;;;;42.90;27.45;;;;;;;15.95;100.00;97947.50;5008406;28;20453;-76
2021/09/29 02:43:33;;;;;;;44.85;27.10;;;;;;;16.08;100.00;97962.66;5009488;28;20033;-76
2021/09/29 02:45:59;;;;;;;37.97;25.33;;;;;;;15.98;100.00;97966.16;5011287;28;20117;-77
2021/09/29 02:48:25;;;;;;;47.95;26.77;;;;;;;16.09;100.00;97975.13;5012594;28;20111;-76
2021/09/29 02:50:50;;;;;;;44.25;26.65;;;;;;;16.04;100.00;97954.88;5011524;28;20068;-77
2021/09/29 02:53:16;;;;;;;38.25;25.27;;;;;;;16.16;100.00;97970.13;5012367;28;20400;-77
2021/09/29 02:55:41;;;;;;;44.17;26.42;;;;;;;16.02;100.00;97968.53;5012157;28;20029;-77
2021/09/29 02:58:09;;;;;;;45.38;25.88;;;;;;;15.92;100.00;97962.09;5011024;28;20405;-77
2021/09/29 03:00:34;;;;;;;46.10;25.63;;;;;;;15.80;100.00;97968.44;5011013;28;21059;-76
2021/09/29 03:03:00;;;;;;;46.40;26.75;;;;;;;15.69;100.00;97963.84;5012275;28;20417;-77
2021/09/29 03:05:25;;;;;;;48.63;27.50;;;;;;;15.62;100.00;97970.69;5012127;28;20104;-77
2021/09/29 03:07:51;;;;;;;48.17;28.23;;;;;;;15.63;100.00;97976.94;5011106;28;20404;-77
2021/09/29 03:10:16;;;;;;;47.85;25.35;;;;;;;15.47;100.00;97981.75;4994523;28;20026;-77
2021/09/29 03:12:42;;;;;;;44.00;26.17;;;;;;;15.52;100.00;97982.28;5011753;28;20026;-77
2021/09/29 03:15:08;;;;;;;52.35;30.08;;;;;;;15.49;100.00;97953.72;5010765;28;20504;-77
2021/09/29 03:17:33;;;;;;;45.78;26.00;;;;;;;15.56;100.00;97965.78;5006159;28;20513;-77
2021/09/29 03:19:59;;;;;;;46.55;26.80;;;;;;;15.61;100.00;97968.09;5011844;28;20025;-77
2021/09/29 03:22:25;;;;;;;29.98;18.70;;;;;;;15.57;100.00;97961.22;5010705;28;20420;-76
2021/09/29 03:24:51;;;;;;;33.65;20.98;;;;;;;15.57;100.00;97975.56;5010641;28;20478;-77
2021/09/29 03:27:16;;;;;;;20.25;14.10;;;;;;;15.54;100.00;97973.09;4994459;28;20048;-77
2021/09/29 03:29:42;;;;;;;20.70;11.52;;;;;;;15.57;100.00;97975.56;5011986;28;20038;-78
2021/09/29 03:32:08;;;;;;;19.02;11.80;;;;;;;15.50;100.00;97968.94;5010787;28;20490;-77
2021/09/29 03:37:55;;;;;;;20.45;13.80;;;;;;;15.38;100.00;97960.84;5003863;28;20509;-77
2021/09/29 03:40:20;;;;;;;16.15;10.93;;;;;;;15.36;100.00;97969.03;4998620;28;20034;-76
2021/09/29 03:42:46;;;;;;;22.55;13.15;;;;;;;15.20;100.00;97957.66;4993834;28;20027;-77
2021/09/29 03:45:12;;;;;;;19.42;13.70;;;;;;;15.24;100.00;97975.34;5001086;28;20128;-77
2021/09/29 03:47:41;;;;;;;22.08;14.77;;;;;;;15.27;100.00;97975.13;4995953;28;20029;-77
2021/09/29 03:50:07;;;;;;;17.52;12.50;;;;;;;15.19;100.00;97975.69;5002510;28;20027;-77
2021/09/29 03:52:32;;;;;;;21.83;15.43;;;;;;;15.17;100.00;97990.25;5006871;28;20489;-77
2021/09/29 03:54:58;;;;;;;22.00;14.40;;;;;;;15.11;100.00;97977.22;4994656;28;20038;-77
2021/09/29 03:57:24;;;;;;;18.08;12.85;;;;;;;15.00;100.00;97972.63;4992277;28;20037;-77
2021/09/29 03:59:49;;;;;;;24.52;13.18;;;;;;;14.99;100.00;97967.34;5014388;28;20034;-77
2021/09/29 04:02:15;;;;;;;18.67;13.45;;;;;;;15.02;100.00;97973.38;5011768;28;20026;-77
2021/09/29 04:04:40;;;;;;;21.25;14.00;;;;;;;14.92;100.00;97982.25;5010337;28;20106;-77
2021/09/29 04:07:06;;;;;;;20.83;14.73;;;;;;;14.93;100.00;97975.88;4985798;28;20135;-77
2021/09/29 04:09:32;;;;;;;23.30;14.20;;;;;;;15.02;100.00;97986.84;5007324;28;20477;-79
2021/09/29 04:11:57;;;;;;;20.23;14.35;;;;;;;14.93;100.00;97986.63;5003005;28;20050;-77
2021/09/29 04:14:23;;;;;;;20.08;13.75;;;;;;;14.79;100.00;97973.31;5001505;28;20053;-75
2021/09/29 04:16:49;;;;;;;18.73;13.07;;;;;;;14.97;100.00;97993.53;5008308;28;20022;-77
2021/09/29 04:19:15;;;;;;;21.58;13.25;;;;;;;14.83;100.00;97983.75;4999713;28;20125;-77
2021/09/29 04:21:40;;;;;;;17.50;12.68;;;;;;;15.02;100.00;98008.38;5003411;28;20457;-76
2021/09/29 04:24:06;;;;;;;20.33;12.32;;;;;;;15.03;100.00;98003.88;5003453;28;20033;-78
2021/09/29 04:26:32;;;;;;;15.38;9.85;;;;;;;14.85;100.00;97997.13;4997710;28;20034;-77
2021/09/29 04:28:58;;;;;;;15.75;10.85;;;;;;;14.92;100.00;98017.25;4979234;28;20516;-77
2021/09/29 04:31:23;;;;;;;15.95;10.23;;;;;;;14.76;100.00;98004.03;5001808;28;20057;-78
2021/09/29 04:33:49;;;;;;;16.33;9.93;;;;;;;14.79;100.00;98014.59;4996925;28;20030;-77
2021/09/29 04:36:14;;;;;;;15.40;9.38;;;;;;;14.80;100.00;98018.13;5002417;28;20561;-76
2021/09/29 04:38:40;;;;;;;12.52;8.15;;;;;;;14.81;100.00;98030.63;4996406;28;20081;-77
2021/09/29 04:41:05;;;;;;;12.95;9.30;;;;;;;14.83;100.00;98034.06;5005649;28;20025;-77
2021/09/29 04:43:31;;;;;;;12.27;8.00;;;;;;;14.73;100.00;98030.31;4992953;28;20120;-78
2021/09/29 04:45:57;;;;;;;11.40;7.65;;;;;;;14.78;100.00;98028.16;5004477;28;20030;-77
2021/09/29 04:48:22;;;;;;;9.60;7.43;;;;;;;14.65;100.00;98028.16;5002793;28;20030;-77
2021/09/29 04:50:48;;;;;;;12.35;8.35;;;;;;;14.73;100.00;98038.41;5013695;28;20022;-78
2021/09/29 04:53:13;;;;;;;14.05;9.43;;;;;;;14.68;100.00;98027.06;5003738;28;20723;-78
2021/09/29 04:55:39;;;;;;;13.10;9.85;;;;;;;14.86;100.00;98042.78;5005926;28;20493;-77
2021/09/29 04:58:05;;;;;;;16.13;8.82;;;;;;;14.70;100.00;98035.91;4996880;28;20156;-77
2021/09/29 05:00:31;;;;;;;14.32;9.77;;;;;;;14.68;100.00;98038.69;4999265;28;20027;-77
2021/09/29 05:02:57;;;;;;;16.05;10.27;;;;;;;14.69;100.00;98031.50;4976663;28;20141;-78
2021/09/29 05:05:22;;;;;;;15.13;10.00;;;;;;;14.58;100.00;98049.25;5011643;28;20494;-77
2021/09/29 05:07:51;;;;;;;14.95;9.70;;;;;;;14.67;100.00;98049.59;5003348;28;20026;-77
2021/09/29 05:10:25;;;;;;;11.55;6.05;;;;;;;14.56;100.00;98045.81;5012412;28;20425;-77
2021/09/29 05:12:52;;;;;;;10.02;6.15;;;;;;;14.60;100.00;98055.41;4989472;28;20042;-77
2021/09/29 05:15:18;;;;;;;8.70;5.80;;;;;;;14.56;100.00;98040.44;5001630;28;20026;-77
2021/09/29 05:17:43;;;;;;;10.07;6.25;;;;;;;14.63;100.00;98041.75;5006913;28;20452;-77
2021/09/29 05:20:09;;;;;;;11.52;6.28;;;;;;;14.73;100.00;98055.41;4993839;28;20042;-77
2021/09/29 05:22:35;;;;;;;7.97;6.00;;;;;;;14.67;100.00;98049.59;5007040;28;20085;-77
2021/09/29 05:25:00;;;;;;;12.63;6.18;;;;;;;14.65;100.00;98058.63;5001495;28;20034;-77
2021/09/29 05:27:26;;;;;;;11.75;7.20;;;;;;;14.70;100.00;98060.16;4992159;28;20030;-77
2021/09/29 05:29:52;;;;;;;14.93;7.32;;;;;;;14.62;100.00;98058.84;5005229;28;20034;-78
2021/09/29 05:32:17;;;;;;;9.30;6.30;;;;;;;14.71;100.00;98061.84;4983965;28;20100;-78
2021/09/29 05:34:43;;;;;;;7.22;5.68;;;;;;;14.69;100.00;98067.38;4981502;28;20489;-77
2021/09/29 05:37:09;;;;;;;14.02;8.95;;;;;;;14.71;100.00;98067.25;4978125;28;20145;-76
2021/09/29 05:39:34;;;;;;;35.55;23.73;;;;;;;14.84;100.00;98081.56;4992742;28;20502;-77
2021/09/29 05:42:00;;;;;;;10.23;8.38;;;;;;;14.89;100.00;98065.97;4993067;28;20061;-79
2021/09/29 05:44:26;;;;;;;11.15;7.55;;;;;;;14.82;100.00;98070.94;4988256;28;20073;-77
2021/09/29 05:46:51;;;;;;;11.40;9.50;;;;;;;14.93;100.00;98080.94;4999963;28;20030;-77
2021/09/29 05:49:17;;;;;;;14.55;9.50;;;;;;;14.87;100.00;98084.06;5006912;28;20477;-77
2021/09/29 05:51:44;;;;;;;13.65;8.45;;;;;;;14.94;100.00;98086.22;4995934;28;20037;-77
2021/09/29 05:54:10;;;;;;;15.02;8.10;;;;;;;15.05;100.00;98080.06;4987956;28;20042;-78
2021/09/29 05:56:36;;;;;;;13.65;8.43;;;;;;;15.00;100.00;98074.13;5007880;28;20034;-77
2021/09/29 05:59:01;;;;;;;16.02;9.65;;;;;;;14.91;100.00;98082.88;4988497;28;20030;-78
2021/09/29 06:01:27;;;;;;;12.85;8.48;;;;;;;14.80;100.00;98061.22;4996103;28;20030;-78
2021/09/29 06:03:52;;;;;;;15.52;9.32;;;;;;;14.87;100.00;98075.97;4992658;28;20030;-75
2021/09/29 06:06:18;;;;;;;16.00;9.18;;;;;;;14.96;100.00;98075.31;5001009;28;20033;-75
2021/09/29 06:08:43;;;;;;;13.68;7.55;;;;;;;14.96;100.00;98086.09;4995071;28;20494;-78
2021/09/29 06:11:09;;;;;;;11.43;7.70;;;;;;;14.87;100.00;98081.34;5008387;28;20034;-76
2021/09/29 06:13:35;;;;;;;12.77;8.02;;;;;;;14.95;100.00;98092.47;4991131;28;20022;-77
2021/09/29 06:16:06;;;;;;;12.18;8.93;;;;;;;14.89;100.00;98093.75;4987840;28;20030;-76
2021/09/29 06:18:36;;;;;;;10.07;8.20;;;;;;;14.90;100.00;98100.00;4995472;28;20025;-77
2021/09/29 06:21:03;;;;;;;11.80;6.75;;;;;;;14.92;100.00;98100.78;4994427;28;20029;-76
2021/09/29 06:23:29;;;;;;;9.35;7.03;;;;;;;14.97;100.00;98109.38;5010706;28;20033;-76
2021/09/29 06:25:55;;;;;;;54.30;36.33;;;;;;;14.90;100.00;98108.09;5009923;28;20478;-76
2021/09/29 06:28:21;;;;;;;16.42;11.30;;;;;;;14.87;100.00;98111.84;4992310;28;20105;-76
2021/09/29 06:30:46;;;;;;;13.45;9.52;;;;;;;14.58;100.00;98103.09;5000519;28;20036;-76
2021/09/29 06:33:13;;;;;;;12.38;8.57;;;;;;;14.75;100.00;98118.09;4978038;28;20135;-77
2021/09/29 06:35:40;;;;;;;19.63;7.00;;;;;;;14.77;100.00;98101.81;4987374;28;20033;-84
2021/09/29 06:38:06;;;;;;;9.75;6.88;;;;;;;14.89;100.00;98111.78;5007154;28;20127;-86
2021/09/29 06:40:31;;;;;;;9.93;7.20;;;;;;;14.96;100.00;98119.28;4999128;28;20081;-75
2021/09/29 06:42:58;;;;;;;9.32;7.07;;;;;;;15.12;100.00;98124.47;4998245;28;20034;-76
2021/09/29 06:45:24;;;;;;;10.93;6.95;;;;;;;15.16;100.00;98121.44;4986482;28;20080;-76
2021/09/29 06:47:50;;;;;;;11.77;6.80;;;;;;;15.22;100.00;98133.63;4990440;28;20537;-76
2021/09/29 06:50:18;;;;;;;13.75;6.68;;;;;;;15.26;100.00;98116.25;4993326;28;20025;-77
2021/09/29 06:52:44;;;;;;;9.77;6.32;;;;;;;15.37;100.00;98116.34;4980955;28;20037;-76
2021/09/29 06:55:10;;;;;;;10.60;5.72;;;;;;;15.33;100.00;98113.97;5003514;28;20422;-77
2021/09/29 06:57:36;;;;;;;9.10;6.10;;;;;;;15.41;100.00;98133.16;4999465;28;20033;-76
2021/09/29 07:00:06;;;;;;;14.95;7.88;;;;;;;15.22;100.00;98149.81;5001585;28;20022;-76
2021/09/29 07:02:33;;;;;;;8.52;5.95;;;;;;;15.18;100.00;98146.44;5005990;28;20453;-76
2021/09/29 07:04:58;;;;;;;7.35;5.45;;;;;;;14.98;100.00;98132.66;4983208;28;20113;-76
2021/09/29 07:07:24;;;;;;;12.05;5.80;;;;;;;14.97;100.00;98145.28;4982990;28;20109;-77
2021/09/29 07:09:49;;;;;;;7.05;5.60;;;;;;;14.77;100.00;98145.78;4994626;28;20026;-76
2021/09/29 07:12:15;;;;;;;6.97;4.97;;;;;;;14.87;100.00;98148.69;5004621;28;20120;-76
2021/09/29 07:14:41;;;;;;;7.85;6.05;;;;;;;14.72;100.00;98144.38;5004178;28;20022;-76
2021/09/29 07:17:06;;;;;;;17.75;6.13;;;;;;;14.62;100.00;98134.25;4998925;28;20018;-76
2021/09/29 07:19:32;;;;;;;11.98;5.70;;;;;;;14.67;100.00;98150.09;4994340;28;20034;-75
2021/09/29 07:21:57;;;;;;;9.02;5.65;;;;;;;14.84;100.00;98146.22;4995376;28;20026;-76
2021/09/29 07:24:23;;;;;;;28.27;16.92;;;;;;;14.78;100.00;98150.22;5011957;28;20026;-76
2021/09/29 07:26:49;;;;;;;11.65;8.70;;;;;;;14.73;100.00;98143.44;5004423;28;20023;-76
2021/09/29 07:29:14;;;;;;;13.60;9.63;;;;;;;14.82;100.00;98164.34;4994611;28;20037;-76
2021/09/29 07:31:40;;;;;;;14.18;9.93;;;;;;;14.71;100.00;98148.03;4988595;28;20026;-76
2021/09/29 07:34:07;;;;;;;15.65;7.93;;;;;;;14.79;100.00;98176.19;5000905;28;20109;-76
2021/09/29 07:36:38;;;;;;;10.93;8.23;;;;;;;14.60;100.00;98176.59;5002825;28;20441;-76
2021/09/29 07:39:04;;;;;;;13.32;8.15;;;;;;;14.47;100.00;98170.28;4985119;28;20058;-76
2021/09/29 07:41:30;;;;;;;8.88;7.15;;;;;;;14.43;100.00;98168.75;4998264;28;20026;-77
2021/09/29 07:43:55;;;;;;;11.77;7.90;;;;;;;14.29;100.00;98174.19;4998463;28;20490;-75
2021/09/29 07:46:21;;;;;;;9.52;8.18;;;;;;;14.37;100.00;98179.94;5005178;28;20034;-76
2021/09/29 07:48:46;;;;;;;13.60;7.85;;;;;;;14.43;100.00;98184.91;4984600;28;20410;-75
2021/09/29 07:51:13;;;;;;;10.85;6.60;;;;;;;14.55;100.00;98183.25;4997166;28;20026;-75
2021/09/29 07:53:41;;;;;;;8.70;7.13;;;;;;;14.38;100.00;98165.53;4999499;28;20026;-76
2021/09/29 07:56:07;;;;;;;10.75;8.35;;;;;;;14.38;100.00;98179.00;5006444;28;20405;-75
2021/09/29 07:58:33;;;;;;;11.43;7.00;;;;;;;14.59;100.00;98198.22;4994180;28;20034;-76
2021/09/29 08:01:00;;;;;;;10.82;5.85;;;;;;;14.73;100.00;98199.97;4979274;28;20564;-76
2021/09/29 08:03:25;;;;;;;8.20;4.47;;;;;;;14.69;100.00;98188.56;4991810;28;20033;-77
2021/09/29 08:05:57;;;;;;;7.00;3.88;;;;;;;14.80;100.00;98193.19;4998285;28;20026;-77
2021/09/29 08:08:22;;;;;;;4.38;3.38;;;;;;;14.83;100.00;98206.44;4998449;28;20022;-76
2021/09/29 08:10:48;;;;;;;19.17;13.70;;;;;;;14.70;100.00;98189.41;5006401;28;20122;-77
2021/09/29 08:13:14;;;;;;;5.82;4.50;;;;;;;14.88;100.00;98193.53;5001147;28;20516;-76
2021/09/29 08:15:39;;;;;;;6.35;4.35;;;;;;;14.99;100.00;98201.72;5008105;28;20509;-76
2021/09/29 08:18:05;;;;;;;7.72;5.05;;;;;;;15.12;100.00;98205.31;4998635;28;20070;-76
2021/09/29 08:20:34;;;;;;;11.60;6.70;;;;;;;15.07;100.00;98216.38;4988600;28;20054;-76
2021/09/29 08:23:11;;;;;;;8.75;4.97;;;;;;;14.96;100.00;98199.25;4983703;28;20028;-76
2021/09/29 08:28:54;;;;;;;5.88;3.90;;;;;;;15.28;100.00;98219.44;5006135;28;20418;-77
2021/09/29 08:31:24;;;;;;;6.57;3.58;;;;;;;15.18;100.00;98213.84;4993604;28;20039;-77
2021/09/29 08:39:09;;;;;;;3.75;2.60;;;;;;;15.36;100.00;98219.75;4994702;28;20106;-76
2021/09/29 08:44:04;;;;;;;5.07;2.55;;;;;;;15.15;100.00;98226.66;4987143;28;20406;-76
2021/09/29 08:46:45;;;;;;;4.72;3.45;;;;;;;15.24;100.00;98238.63;4995930;28;20025;-76
2021/09/29 08:49:25;;;;;;;3.80;2.83;;;;;;;15.25;100.00;98219.66;5008853;28;20030;-76
2021/09/29 08:57:36;;;;;;;5.25;2.70;;;;;;;15.49;100.00;98242.22;4985008;28;20053;-76
2021/09/29 09:16:31;;;;;;;6.50;4.43;;;;;;;14.87;100.00;98245.69;4998985;28;20038;-76
2021/09/29 09:18:57;;;;;;;9.07;4.90;;;;;;;14.98;100.00;98253.91;4982293;28;20026;-76
2021/09/29 09:21:24;;;;;;;4.97;3.97;;;;;;;14.99;100.00;98250.22;4995336;28;20136;-75
2021/09/29 09:23:49;;;;;;;5.78;4.68;;;;;;;15.01;100.00;98253.69;5007764;28;20188;-77
2021/09/29 09:26:27;;;;;;;7.50;4.32;;;;;;;15.34;100.00;98264.84;5009871;28;20112;-76
2021/09/29 09:29:06;;;;;;;7.82;5.30;;;;;;;15.14;100.00;98254.56;5004605;28;20111;-76
2021/09/29 09:31:32;;;;;;;7.30;4.93;;;;;;;15.34;100.00;98264.84;5008391;28;20038;-76
2021/09/29 09:34:02;;;;;;;9.55;6.40;;;;;;;15.69;100.00;98260.53;4984348;28;20022;-76
2021/09/29 09:36:41;;;;;;;14.25;9.30;;;;;;;16.05;100.00;98277.78;4993752;28;20502;-75
2021/09/29 09:39:16;;;;;;;11.82;4.80;;;;;;;16.07;100.00;98262.34;4980320;28;20513;-77
2021/09/29 09:41:56;;;;;;;12.70;6.95;;;;;;;16.12;100.00;98285.31;5000138;28;20039;-76
2021/09/29 09:44:23;;;;;;;10.63;8.05;;;;;;;16.00;100.00;98269.13;4965245;28;20498;-76
2021/09/29 09:47:08;;;;;;;12.48;9.05;;;;;;;16.06;100.00;98282.19;5004212;28;20033;-76
2021/09/29 09:49:44;;;;;;;6.53;4.70;;;;;;;15.62;100.00;98278.16;5004261;28;20430;-75
2021/09/29 09:52:10;;;;;;;5.28;4.13;;;;;;;15.30;100.00;98271.41;4983504;28;20525;-77
2021/09/29 09:54:37;;;;;;;4.30;3.88;;;;;;;15.60;100.00;98284.59;5000971;28;20123;-76
2021/09/29 09:57:18;;;;;;;4.88;4.35;;;;;;;15.54;100.00;98275.13;4999148;28;20058;-76
2021/09/29 09:59:50;;;;;;;11.10;8.52;;;;;;;15.68;100.00;98287.66;4983926;28;20037;-76
2021/09/29 10:02:16;;;;;;;13.13;9.15;;;;;;;15.67;100.00;98275.13;4987682;28;20038;-76
2021/09/29 10:04:43;;;;;;;4.85;3.83;;;;;;;15.58;100.00;98284.72;5000028;28;20030;-77
2021/09/29 10:07:09;;;;;;;5.22;3.90;;;;;;;15.63;100.00;98263.69;4995008;28;20030;-76
2021/09/29 10:09:42;;;;;;;5.20;4.47;;;;;;;15.48;100.00;98278.25;5008320;28;20033;-76
2021/09/29 10:26:09;;;;;;;51.15;26.95;;;;;;;15.54;100.00;98267.03;4977476;28;20117;-77
2021/09/29 10:28:38;;;;;;;18.65;13.20;;;;;;;15.75;100.00;98278.13;5005610;28;20031;-76
2021/09/29 10:33:33;;;;;;;6.60;4.40;;;;;;;15.71;100.00;98269.41;5004336;28;20413;-76
2021/09/29 10:44:28;;;;;;;4.45;3.20;;;;;;;15.57;100.00;98279.44;4983166;28;20041;-76
2021/09/29 10:47:13;;;;;;;4.97;3.47;;;;;;;15.64;100.00;98257.31;4983076;28;20037;-76
2021/09/29 11:30:39;;;;;;;3.33;2.58;;;;;;;16.14;96.95;98264.50;4999785;28;20037;-77
2021/09/29 11:35:58;;;;;;;4.13;3.35;;;;;;;16.11;98.06;98261.13;4999851;28;20018;-76
2021/09/29 12:09:18;;;;;;;8.25;5.40;;;;;;;15.32;100.00;98258.69;4967796;28;20121;-76
2021/09/29 12:12:05;;;;;;;19.13;13.23;;;;;;;15.34;100.00;98245.09;4985970;28;20022;-76
2021/09/29 12:14:34;;;;;;;5.38;4.20;;;;;;;15.47;100.00;98251.38;5001129;28;20026;-76
2021/09/29 12:16:59;;;;;;;8.32;4.13;;;;;;;15.42;100.00;98240.03;5007300;28;20137;-77
2021/09/29 12:19:33;;;;;;;6.50;4.32;;;;;;;15.14;100.00;98247.34;4988091;28;20477;-77
2021/09/29 12:22:01;;;;;;;5.85;4.35;;;;;;;15.33;100.00;98233.44;5005687;28;20034;-77
2021/09/29 12:24:47;;;;;;;5.78;3.72;;;;;;;15.44;100.00;98243.50;4984444;28;20042;-77
2021/09/29 12:27:23;;;;;;;7.03;4.70;;;;;;;15.62;100.00;98261.97;4993538;28;20038;-77
2021/09/29 12:29:53;;;;;;;5.80;3.92;;;;;;;15.64;97.76;98246.53;5002723;28;20026;-75
2021/09/29 12:37:40;;;;;;;3.83;3.08;;;;;;;15.85;100.00;98252.22;5000990;28;20061;-76
2021/09/29 12:40:07;;;;;;;4.55;3.47;;;;;;;16.09;99.50;98254.97;4996358;28;20030;-76
2021/09/29 12:42:40;;;;;;;3.50;2.30;;;;;;;16.09;97.72;98257.66;4980301;28;20034;-76
2021/09/29 12:45:07;;;;;;;6.88;3.30;;;;;;;16.03;97.02;98258.97;5009870;28;20036;-76
2021/09/29 12:49:58;;;;;;;2.85;2.55;;;;;;;16.00;96.93;98245.72;5008545;28;20027;-76
2021/09/29 12:52:31;;;;;;;3.00;2.70;;;;;;;15.80;96.94;98240.91;4992958;28;20030;-76
2021/09/29 12:54:58;;;;;;;5.72;3.95;;;;;;;16.02;99.89;98257.28;5010562;28;20025;-76
2021/09/29 12:57:27;;;;;;;5.60;3.08;;;;;;;16.12;99.80;98255.63;5005201;28;20096;-76
2021/09/29 12:59:54;;;;;;;3.50;3.15;;;;;;;15.96;100.00;98254.16;5001111;28;20092;-75
2021/09/29 13:02:20;;;;;;;4.00;3.17;;;;;;;15.95;98.43;98266.78;4984601;28;20026;-76
2021/09/29 13:04:45;;;;;;;9.18;3.72;;;;;;;15.66;100.00;98258.06;4981718;28;20038;-75
2021/09/29 13:07:11;;;;;;;6.93;4.60;;;;;;;15.70;100.00;98258.72;5007677;28;20030;-76
2021/09/29 13:12:20;;;;;;;7.53;3.90;;;;;;;15.59;100.00;98262.19;4979511;28;20104;-76
2021/09/29 13:14:46;;;;;;;6.55;3.28;;;;;;;15.62;100.00;98250.31;4990820;28;20026;-75
2021/09/29 13:17:11;;;;;;;6.72;3.42;;;;;;;15.84;100.00;98268.53;4994554;28;20021;-75
2021/09/29 13:19:52;;;;;;;4.35;2.50;;;;;;;15.91;100.00;98275.19;4995016;28;20033;-75
2021/09/29 13:22:19;;;;;;;3.15;2.70;;;;;;;15.86;100.00;98258.47;4983143;28;20030;-75
2021/09/29 13:27:33;;;;;;;5.72;3.80;;;;;;;15.63;100.00;98255.59;4982286;28;20072;-76
2021/09/29 13:37:52;;;;;;;8.40;5.53;;;;;;;15.54;100.00;98260.75;5009758;28;20051;-76
2021/09/29 13:40:17;;;;;;;9.07;6.60;;;;;;;15.60;100.00;98265.72;5004824;28;20467;-75
2021/09/29 13:42:43;;;;;;;9.93;4.13;;;;;;;15.70;99.86;98264.97;4969977;28;20031;-76
2021/09/29 13:45:10;;;;;;;6.28;4.50;;;;;;;15.61;100.00;98265.63;4976208;28;20096;-76
2021/09/29 13:47:37;;;;;;;5.10;4.20;;;;;;;15.62;100.00;98270.06;4993785;28;20109;-77
2021/09/29 13:50:04;;;;;;;7.75;4.45;;;;;;;15.47;100.00;98257.63;4982940;28;20026;-76
2021/09/29 13:52:30;;;;;;;13.38;7.47;;;;;;;15.54;100.00;98258.94;5007135;28;20486;-76
2021/09/29 13:55:00;;;;;;;9.00;5.50;;;;;;;15.51;100.00;98269.94;4995420;28;20053;-76